PWSweather.com
Personal Weather Stations
Station Observations
DELHOVEN
DormagenDE 41540

DormagenDE 41540

Lat: 51.083, Lon: 6.775

Elevation: 120

Station Type: WH1080

Latest ConditionsUpdated 2:43:56 AM GMT+01:01 Wednesday, Feb 22, 2017
Currently Today's Max Today's Min Today's Average
Temperature 52.3°F11.3°C 52.3°F11.3°C 51.1°F10.6°C 51.7°F10.9°C
Dew Point 48.0°F8.9°C 48.5°F9.2°C 47.5°F8.6°C 47.9°F8.8°C
Winds 3.8 mph SW6.1 kmh SW 13.0 mph SW20.9 kmh SW - 8.4 mph 13.5 kmh
Wind Gusts 6.9 mph11.1 kmh 19.7 mph31.7 kmh - -
Humidity 85% 89% 85% 87%
Pressure 29.82 in1009.8 mb 29.87 in1011.5 mb 29.82 in1009.8 mb -
Hour Temp Dew Point Humidity Winds Wind Gusts Pressure Precip Precip Rate Daily Precip Total
02:43 AM 52.3°F11.3°C 48.0°F8.9°C 85% 3.8 mph SW6.1 kmh SW 6.9 mph11.1 kmh 29.82 in1009.8 mb 0.00 in0.0 mm 0.00 in0.0 mm 0.00 in0.0 mm
02:38 AM 52.2°F11.2°C 47.8°F8.8°C 85% 7.6 mph NW12.2 kmh NW 13.6 mph21.9 kmh 29.82 in1009.8 mb 0.00 in0.0 mm 0.00 in0.0 mm 0.00 in0.0 mm
02:33 AM 52.2°F11.2°C 47.8°F8.8°C 85% 7.6 mph NW12.2 kmh NW 12.1 mph19.5 kmh 29.82 in1009.8 mb 0.00 in0.0 mm 0.00 in0.0 mm 0.00 in0.0 mm
02:28 AM 52.2°F11.2°C 47.8°F8.8°C 85% 8.3 mph NW13.4 kmh NW 15.9 mph25.6 kmh 29.82 in1009.8 mb 0.00 in0.0 mm 0.00 in0.0 mm 0.00 in0.0 mm
02:23 AM 52.0°F11.1°C 47.6°F8.7°C 85% 6.9 mph WSW11.1 kmh WSW 10.7 mph17.2 kmh 29.82 in1009.8 mb 0.00 in0.0 mm 0.00 in0.0 mm 0.00 in0.0 mm
02:18 AM 52.0°F11.1°C 47.6°F8.7°C 85% 4.5 mph NW7.2 kmh NW 7.6 mph12.2 kmh 29.82 in1009.8 mb 0.00 in0.0 mm 0.00 in0.0 mm 0.00 in0.0 mm
02:13 AM 52.0°F11.1°C 47.6°F8.7°C 85% 9.8 mph NW15.8 kmh NW 12.1 mph19.5 kmh 29.82 in1009.8 mb 0.00 in0.0 mm 0.00 in0.0 mm 0.00 in0.0 mm
02:08 AM 52.0°F11.1°C 47.6°F8.7°C 85% 6.9 mph NW11.1 kmh NW 9.8 mph15.8 kmh 29.83 in1010.2 mb 0.00 in0.0 mm 0.00 in0.0 mm 0.00 in0.0 mm
02:03 AM 52.0°F11.1°C 47.6°F8.7°C 85% 13.0 mph NW20.9 kmh NW 18.3 mph29.5 kmh 29.83 in1010.2 mb 0.00 in0.0 mm 0.00 in0.0 mm 0.00 in0.0 mm
01:58 AM 52.0°F11.1°C 47.9°F8.8°C 86% 10.7 mph SW17.2 kmh SW 16.8 mph27.0 kmh 29.83 in1010.2 mb 0.00 in0.0 mm 0.00 in0.0 mm 0.00 in0.0 mm
01:53 AM 52.0°F11.1°C 47.9°F8.8°C 86% 10.7 mph WNW17.2 kmh WNW 18.3 mph29.5 kmh 29.83 in1010.2 mb 0.00 in0.0 mm 0.00 in0.0 mm 0.00 in0.0 mm
01:48 AM 51.8°F11.0°C 47.7°F8.7°C 86% 9.2 mph NNW14.8 kmh NNW 17.4 mph28.0 kmh 29.83 in1010.2 mb 0.00 in0.0 mm 0.00 in0.0 mm 0.00 in0.0 mm
01:43 AM 52.0°F11.1°C 47.9°F8.8°C 86% 8.3 mph SW13.4 kmh SW 13.6 mph21.9 kmh 29.83 in1010.2 mb 0.00 in0.0 mm 0.00 in0.0 mm 0.00 in0.0 mm
01:38 AM 52.0°F11.1°C 47.9°F8.8°C 86% 9.8 mph S15.8 kmh S 15.9 mph25.6 kmh 29.84 in1010.5 mb 0.00 in0.0 mm 0.00 in0.0 mm 0.00 in0.0 mm
01:33 AM 52.0°F11.1°C 47.9°F8.8°C 86% 6.0 mph NW9.7 kmh NW 9.8 mph15.8 kmh 29.84 in1010.5 mb 0.00 in0.0 mm 0.00 in0.0 mm 0.00 in0.0 mm
01:28 AM 51.8°F11.0°C 47.7°F8.7°C 86% 9.8 mph SW15.8 kmh SW 15.9 mph25.6 kmh 29.84 in1010.5 mb 0.00 in0.0 mm 0.00 in0.0 mm 0.00 in0.0 mm
01:23 AM 51.8°F11.0°C 47.7°F8.7°C 86% 12.1 mph NW19.5 kmh NW 18.3 mph29.5 kmh 29.84 in1010.5 mb 0.00 in0.0 mm 0.00 in0.0 mm 0.00 in0.0 mm
01:18 AM 51.8°F11.0°C 48.1°F8.9°C 87% 8.3 mph SW13.4 kmh SW 14.5 mph23.3 kmh 29.84 in1010.5 mb 0.00 in0.0 mm 0.00 in0.0 mm 0.00 in0.0 mm
01:13 AM 52.0°F11.1°C 48.2°F9.0°C 87% 7.6 mph W12.2 kmh W 13.0 mph20.9 kmh 29.85 in1010.8 mb 0.00 in0.0 mm 0.00 in0.0 mm 0.00 in0.0 mm
01:08 AM 51.8°F11.0°C 48.1°F8.9°C 87% 6.9 mph SW11.1 kmh SW 12.1 mph19.5 kmh 29.85 in1010.8 mb 0.00 in0.0 mm 0.00 in0.0 mm 0.00 in0.0 mm
01:03 AM 51.6°F10.9°C 48.2°F9.0°C 88% 10.7 mph SW17.2 kmh SW 17.4 mph28.0 kmh 29.85 in1010.8 mb 0.00 in0.0 mm 0.00 in0.0 mm 0.00 in0.0 mm
12:58 AM 51.6°F10.9°C 48.5°F9.2°C 89% 13.0 mph SW20.9 kmh SW 19.7 mph31.7 kmh 29.85 in1010.8 mb 0.00 in0.0 mm 0.00 in0.0 mm 0.00 in0.0 mm
12:53 AM 51.4°F10.8°C 48.3°F9.1°C 89% 8.3 mph E13.4 kmh E 13.6 mph21.9 kmh 29.85 in1010.8 mb 0.00 in0.0 mm 0.00 in0.0 mm 0.00 in0.0 mm
12:48 AM 51.4°F10.8°C 48.3°F9.1°C 89% 9.8 mph WNW15.8 kmh WNW 13.0 mph20.9 kmh 29.86 in1011.2 mb 0.00 in0.0 mm 0.00 in0.0 mm 0.00 in0.0 mm
12:43 AM 51.3°F10.7°C 48.1°F8.9°C 89% 9.8 mph W15.8 kmh W 13.0 mph20.9 kmh 29.86 in1011.2 mb 0.00 in0.0 mm 0.00 in0.0 mm 0.00 in0.0 mm
12:38 AM 51.3°F10.7°C 48.1°F8.9°C 89% 7.6 mph SW12.2 kmh SW 12.1 mph19.5 kmh 29.87 in1011.5 mb 0.00 in0.0 mm 0.00 in0.0 mm 0.00 in0.0 mm
12:33 AM 51.1°F10.6°C 48.0°F8.9°C 89% 9.2 mph NW14.8 kmh NW 13.0 mph20.9 kmh 29.86 in1011.2 mb 0.00 in0.0 mm 0.00 in0.0 mm 0.00 in0.0 mm
12:28 AM 51.1°F10.6°C 47.7°F8.7°C 88% 6.0 mph SW9.7 kmh SW 7.6 mph12.2 kmh 29.87 in1011.5 mb 0.00 in0.0 mm 0.00 in0.0 mm 0.00 in0.0 mm
12:23 AM 51.1°F10.6°C 47.7°F8.7°C 88% 5.4 mph W8.7 kmh W 9.8 mph15.8 kmh 29.87 in1011.5 mb 0.00 in0.0 mm 0.00 in0.0 mm 0.00 in0.0 mm
12:18 AM 51.1°F10.6°C 47.7°F8.7°C 88% 7.6 mph SW12.2 kmh SW 14.5 mph23.3 kmh 29.87 in1011.5 mb 0.00 in0.0 mm 0.00 in0.0 mm 0.00 in0.0 mm
12:13 AM 51.3°F10.7°C 47.8°F8.8°C 88% 5.4 mph 8.7 kmh 9.2 mph14.8 kmh 29.87 in1011.5 mb 0.00 in0.0 mm 0.00 in0.0 mm 0.00 in0.0 mm
12:08 AM 51.3°F10.7°C 47.5°F8.6°C 87% 10.7 mph SW17.2 kmh SW 14.5 mph23.3 kmh 29.87 in1011.5 mb 0.00 in0.0 mm 0.00 in0.0 mm 0.00 in0.0 mm
12:03 AM 51.3°F10.7°C 47.5°F8.6°C 87% 6.0 mph WSW9.7 kmh WSW 13.0 mph20.9 kmh 29.87 in1011.5 mb 0.00 in0.0 mm 0.00 in0.0 mm 0.00 in0.0 mm